Nearby METAR Reports

 

CYXU - London Airport, Ontario, Canada
Distance from station: SSE 21km
Updated: 24/02/2018 08:00
Overcast
Overcast
 Wind from N
Wind: N 7 km/h
Temperature: 1°C
Wind Chill: -2°C
Dew Point: -1°C
Humidity: 87%
Barometer: 1023.4 hPa
Clouds: Overcast
Visibility: 24 km
Cloud details: Few Clouds 914 m
Overcast 3353 m
2018/02/24 13:00 CYXU 241300Z 01004KT 15SM FEW030 OVC110 01/M01 A3022 RMK SC1AC7 SLP245
CXDI - Delhi Cs (aut), Ontario, Canada
Distance from station: SE 65km
Updated: 24/02/2018 08:00

 Wind from calm
Wind: Calm
Temperature: 1°C
Dew Point: 0°C
Humidity: 93%
2018/02/24 13:00 CXDI 241300Z AUTO 00000KT 01/M00 RMK AO1 SLP239 T00141002 53006
 
CYKF - Waterloo Well, Ontario, Canada
Distance from station: ENE 72km
Updated: 24/02/2018 08:25
Mostly cloudy
Mostly cloudy
 Wind from NNW
Wind: NNW 15 km/h
Temperature: 1°C
Wind Chill: -3°C
Dew Point: -1°C
Humidity: 87%
Barometer: 1023.4 hPa
Clouds: Mostly cloudy
Visibility: 14 km
Cloud details: Partly cloudy 610 m
Mostly cloudy 3353 m
Mostly cloudy 4877 m
Mostly cloudy 5486 m
2018/02/24 13:25 CYKF 241325Z AUTO 33008KT 9SM SCT020 BKN110 BKN160 BKN180 01/M01 A3022 RMK SLP244
CWGD - Goderich (autob), Ontario, Canada
Distance from station: NW 76km
Updated: 24/02/2018 08:00

 Wind from NNE
Wind: NNE 7 km/h
Temperature: 0°C
Wind Chill: -3°C
Dew Point: -2°C
Humidity: 87%
2018/02/24 13:00 CWGD 241300Z AUTO 02004KT 00/M02 RMK AO1 SLP252 T00001022 51014
 
CZEL - Elora Rcs, Ontario, Canada
Distance from station: NE 81km
Updated: 24/02/2018 08:00

 Wind from N
Wind: N 15 km/h
Temperature: 0°C
Wind Chill: -4°C
Dew Point: -3°C
Humidity: 80%
2018/02/24 13:00 CZEL 241300Z AUTO 35008KT M00/M03 RMK AO1 SOG 01 1012 SLP242 T10031029